createdAt,value
2023-10-23T00:00:43.548Z,101056.94
2023-10-23T00:03:31.726Z,101052.72
2023-10-23T00:06:19.832Z,101061.41
2023-10-23T00:09:07.990Z,101065.88
2023-10-23T00:11:56.349Z,101058.03
2023-10-23T00:14:45.141Z,101067.63
2023-10-23T00:17:33.167Z,101067.63
2023-10-23T00:20:21.662Z,101068.56
2023-10-23T00:23:09.794Z,101074.72
2023-10-23T00:25:57.860Z,101070.47
2023-10-23T00:28:45.820Z,101069.63
2023-10-23T00:31:33.886Z,101062.69
2023-10-23T00:34:24.223Z,101073.16
2023-10-23T00:37:12.504Z,101064.59
2023-10-23T00:40:01.802Z,101071.41
2023-10-23T00:42:50.788Z,101067.16
2023-10-23T00:45:50.517Z,101073.28
2023-10-23T00:48:38.809Z,101063.03
2023-10-23T00:51:29.716Z,101063.91
2023-10-23T00:54:18.677Z,101063.09
2023-10-23T00:57:10.134Z,101059.66
2023-10-23T01:00:05.413Z,101065.72
2023-10-23T01:02:53.490Z,101069.28
2023-10-23T01:05:42.576Z,101064.97
2023-10-23T01:08:31.342Z,101068.56
2023-10-23T01:11:22.096Z,101075.63
2023-10-23T01:14:10.364Z,101079.16
2023-10-23T01:16:58.669Z,101084.53
2023-10-23T01:19:49.352Z,101085.41
2023-10-23T01:22:37.812Z,101085.53
2023-10-23T01:25:26.055Z,101084.66
2023-10-23T01:28:13.949Z,101087.34
2023-10-23T01:31:02.010Z,101084.81
2023-10-23T01:33:51.217Z,101086.53
2023-10-23T01:36:39.264Z,101084.94
2023-10-23T01:39:27.533Z,101088.50
2023-10-23T01:42:15.482Z,101083.41
2023-10-23T01:45:05.282Z,101088.63
2023-10-23T01:47:53.285Z,101080.00
2023-10-23T01:50:41.960Z,101080.94
2023-10-23T01:53:31.246Z,101088.84
2023-10-23T01:56:19.205Z,101082.03
2023-10-23T01:59:07.647Z,101082.94
2023-10-23T02:01:55.765Z,101079.56
2023-10-23T02:04:44.382Z,101071.84
2023-10-23T02:07:32.372Z,101072.75
2023-10-23T02:10:20.903Z,101075.44
2023-10-23T02:13:09.255Z,101078.28
2023-10-23T02:15:57.217Z,101076.59
2023-10-23T02:18:45.550Z,101089.72
2023-10-23T02:21:34.077Z,101090.78
2023-10-23T02:24:22.205Z,101094.38
2023-10-23T02:27:10.771Z,101091.91
2023-10-23T02:29:59.524Z,101093.72
2023-10-23T02:32:47.464Z,101098.25
2023-10-23T02:35:37.921Z,101110.59
2023-10-23T02:38:25.780Z,101111.50
2023-10-23T02:41:14.026Z,101115.16
2023-10-23T02:44:02.851Z,101104.75
2023-10-23T02:46:52.534Z,101105.69
2023-10-23T02:49:40.827Z,101118.69
2023-10-23T02:52:28.942Z,101113.66
2023-10-23T02:55:16.873Z,101112.88
2023-10-23T02:58:04.758Z,101118.97
2023-10-23T03:00:54.183Z,101121.63
2023-10-23T03:03:42.881Z,101119.94
2023-10-23T03:06:31.148Z,101120.91
2023-10-23T03:09:21.286Z,101120.91
2023-10-23T03:12:09.384Z,101118.34
2023-10-23T03:14:57.544Z,101116.66
2023-10-23T03:17:45.535Z,101116.81
2023-10-23T03:20:35.443Z,101117.75
2023-10-23T03:23:23.326Z,101115.34
2023-10-23T03:26:11.242Z,101120.75
2023-10-23T03:28:59.171Z,101123.56
2023-10-23T03:31:47.231Z,101116.81
2023-10-23T03:34:35.122Z,101117.00
2023-10-23T03:37:23.003Z,101124.16
2023-10-23T03:40:11.609Z,101131.31
2023-10-23T03:42:59.606Z,101128.03
2023-10-23T03:45:48.901Z,101127.38
2023-10-23T03:48:37.589Z,101128.44
2023-10-23T03:51:25.603Z,101126.94
2023-10-23T03:54:14.611Z,101127.91
2023-10-23T03:57:03.484Z,101128.09
2023-10-23T03:59:51.543Z,101128.22
2023-10-23T04:02:40.511Z,101131.72
2023-10-23T04:05:32.223Z,101124.88
2023-10-23T04:08:20.313Z,101131.09
2023-10-23T04:11:12.348Z,101126.78
2023-10-23T04:14:06.230Z,101127.72
2023-10-23T04:16:54.195Z,101136.50
2023-10-23T04:19:42.063Z,101137.34
2023-10-23T04:22:29.915Z,101135.78
2023-10-23T04:25:18.922Z,101136.63
2023-10-23T04:28:06.883Z,101130.69
2023-10-23T04:30:57.161Z,101125.47
2023-10-23T04:33:45.156Z,101135.91
2023-10-23T04:36:33.141Z,101132.38
2023-10-23T04:39:21.940Z,101136.63
2023-10-23T04:42:10.216Z,101145.16
2023-10-23T04:44:58.992Z,101135.56
2023-10-23T04:47:47.073Z,101143.38
2023-10-23T04:50:37.507Z,101132.88
2023-10-23T04:53:25.372Z,101138.88
2023-10-23T04:56:13.362Z,101137.22
2023-10-23T04:59:01.521Z,101128.63
2023-10-23T05:01:51.156Z,101123.63
2023-10-23T05:04:42.767Z,101133.22
2023-10-23T05:07:31.403Z,101132.44
2023-10-23T05:10:19.521Z,101128.25
2023-10-23T05:13:07.682Z,101126.53
2023-10-23T05:16:02.589Z,101122.34
2023-10-23T05:18:50.592Z,101124.28
2023-10-23T05:21:39.878Z,101137.44
2023-10-23T05:24:30.928Z,101136.63
2023-10-23T05:27:20.041Z,101132.31
2023-10-23T05:33:14.879Z,101127.31
2023-10-23T05:36:10.212Z,101128.19
2023-10-23T05:39:11.342Z,101134.38
2023-10-23T05:42:00.995Z,101133.47
2023-10-23T05:44:51.897Z,101128.38
2023-10-23T05:47:43.424Z,101136.97
2023-10-23T05:50:32.358Z,101132.72
2023-10-23T05:53:28.610Z,101130.09
2023-10-23T05:56:16.495Z,101135.31
2023-10-23T05:59:18.270Z,101135.31
2023-10-23T06:02:08.165Z,101137.88
2023-10-23T06:04:56.562Z,101134.44
2023-10-23T06:07:56.454Z,101142.25
2023-10-23T06:10:47.881Z,101139.69
2023-10-23T06:13:37.153Z,101136.19
2023-10-23T06:16:25.291Z,101137.16
2023-10-23T06:19:16.295Z,101144.25
2023-10-23T06:22:07.281Z,101142.59
2023-10-23T06:24:57.686Z,101151.19
2023-10-23T06:27:45.597Z,101154.72
2023-10-23T06:30:37.756Z,101144.41
2023-10-23T06:33:29.560Z,101142.63
2023-10-23T06:36:21.306Z,101146.09
2023-10-23T06:39:10.978Z,101137.41
2023-10-23T06:42:00.777Z,101134.81
2023-10-23T06:44:50.240Z,101137.38
2023-10-23T06:47:40.174Z,101146.03
2023-10-23T06:50:32.116Z,101149.34
2023-10-23T06:53:28.329Z,101149.00
2023-10-23T06:56:17.214Z,101148.50
2023-10-23T06:59:18.181Z,101152.22
2023-10-23T07:02:12.815Z,101144.16
2023-10-23T07:05:04.727Z,101148.25
2023-10-23T07:07:53.220Z,101143.09
2023-10-23T07:10:41.496Z,101139.66
2023-10-23T07:13:32.003Z,101143.25
2023-10-23T07:16:28.144Z,101147.66
2023-10-23T07:19:20.576Z,101145.16
2023-10-23T07:22:22.297Z,101138.38
2023-10-23T07:25:13.908Z,101137.59
2023-10-23T07:28:12.455Z,101143.59
2023-10-23T07:31:04.656Z,101141.91
2023-10-23T07:34:00.540Z,101154.03
2023-10-23T07:36:51.362Z,101146.34
2023-10-23T07:39:50.917Z,101139.19
2023-10-23T07:42:39.865Z,101131.41
2023-10-23T07:45:33.030Z,101136.38
2023-10-23T07:48:27.284Z,101141.50
2023-10-23T07:51:19.627Z,101132.88
2023-10-23T07:54:09.284Z,101133.38
2023-10-23T07:57:02.597Z,101138.47
2023-10-23T07:59:54.678Z,101140.91
2023-10-23T08:02:45.894Z,101137.28
2023-10-23T08:05:36.266Z,101139.59
2023-10-23T08:08:26.221Z,101142.06
2023-10-23T08:11:20.091Z,101144.56
2023-10-23T08:14:13.554Z,101146.06
2023-10-23T08:17:18.140Z,101145.84
2023-10-23T08:20:18.493Z,101133.41
2023-10-23T08:23:15.675Z,101128.84
2023-10-23T08:26:07.859Z,101134.78
2023-10-23T08:29:06.185Z,101123.31
2023-10-23T08:35:05.549Z,101127.25
2023-10-23T08:37:58.505Z,101129.66
2023-10-23T08:40:51.451Z,101130.31
2023-10-23T08:43:47.666Z,101129.16
2023-10-23T08:46:38.525Z,101129.81
2023-10-23T08:49:47.559Z,101132.94
2023-10-23T08:52:49.605Z,101132.66
2023-10-23T08:55:39.657Z,101134.94
2023-10-23T08:58:29.795Z,101135.44
2023-10-23T09:01:19.049Z,101134.28
2023-10-23T09:04:09.156Z,101131.41
2023-10-23T09:07:00.781Z,101141.25
2023-10-23T09:09:52.472Z,101129.75
2023-10-23T09:12:41.779Z,101130.44
2023-10-23T09:15:29.744Z,101137.66
2023-10-23T09:18:17.862Z,101131.09
2023-10-23T09:21:08.400Z,101132.50
2023-10-23T09:24:05.087Z,101123.38
2023-10-23T09:26:53.793Z,101124.56
2023-10-23T09:29:42.053Z,101119.72
2023-10-23T09:32:30.940Z,101125.41
2023-10-23T09:35:22.830Z,101119.72
2023-10-23T09:38:16.632Z,101117.50
2023-10-23T09:41:05.683Z,101119.56
2023-10-23T09:43:55.949Z,101113.03
2023-10-23T09:46:44.522Z,101115.28
2023-10-23T09:49:38.887Z,101111.34
2023-10-23T09:52:28.151Z,101105.88
2023-10-23T09:55:21.070Z,101097.69
2023-10-23T09:58:18.515Z,101098.97
2023-10-23T10:01:10.099Z,101090.72
2023-10-23T10:04:13.753Z,101083.38
2023-10-23T10:07:29.322Z,101092.44
2023-10-23T10:10:19.165Z,101089.34
2023-10-23T10:13:16.147Z,101092.25
2023-10-23T10:16:11.522Z,101084.63
2023-10-23T10:19:02.077Z,101086.50
2023-10-23T10:22:36.058Z,101091.69
2023-10-23T10:25:27.198Z,101075.81
2023-10-23T10:28:17.260Z,101077.66
2023-10-23T10:31:05.271Z,101070.88
2023-10-23T10:34:26.808Z,101067.81
2023-10-23T10:37:11.710Z,101067.19
2023-10-23T10:40:12.638Z,101061.19
2023-10-23T10:43:06.617Z,101062.03
2023-10-23T10:45:57.067Z,101057.47
2023-10-23T10:48:48.489Z,101050.13
2023-10-23T10:51:37.094Z,101046.47
2023-10-23T10:54:33.289Z,101043.66
2023-10-23T10:57:27.858Z,101036.16
2023-10-23T11:00:17.408Z,101028.81
2023-10-23T11:03:06.463Z,101026.88
2023-10-23T11:06:03.325Z,101015.28
2023-10-23T11:08:55.576Z,101011.44
2023-10-23T11:11:43.720Z,101014.72
2023-10-23T11:14:31.646Z,101005.72
2023-10-23T11:17:19.578Z,101000.81
2023-10-23T11:20:13.263Z,101001.19
2023-10-23T11:23:01.627Z,100992.38
2023-10-23T11:25:51.471Z,100981.75
2023-10-23T11:28:39.413Z,100988.84
2023-10-23T11:31:27.408Z,100993.28
2023-10-23T11:34:17.453Z,100983.28
2023-10-23T11:37:06.926Z,100976.22
2023-10-23T11:39:58.065Z,100976.03
2023-10-23T11:42:56.124Z,100963.63
2023-10-23T11:45:45.090Z,100960.91
2023-10-23T11:48:32.982Z,100953.44
2023-10-23T11:51:23.483Z,100948.09
2023-10-23T11:54:12.504Z,100952.50
2023-10-23T11:57:01.333Z,100945.25
2023-10-23T11:59:49.554Z,100938.28
2023-10-23T12:02:37.455Z,100936.50
2023-10-23T12:05:26.341Z,100934.72
2023-10-23T12:08:14.352Z,100925.69
2023-10-23T12:11:02.217Z,100907.97
2023-10-23T12:13:50.155Z,100913.97
2023-10-23T12:16:38.209Z,100917.47
2023-10-23T12:19:26.243Z,100903.44
2023-10-23T12:22:14.259Z,100909.38
2023-10-23T12:25:03.843Z,100909.38
2023-10-23T12:27:52.810Z,100908.41
2023-10-23T12:30:43.432Z,100903.03
2023-10-23T12:33:37.528Z,100899.56
2023-10-23T12:36:26.422Z,100888.19
2023-10-23T12:39:14.294Z,100889.66
2023-10-23T12:42:02.185Z,100891.56
2023-10-23T12:44:54.231Z,100886.28
2023-10-23T12:47:43.163Z,100881.22
2023-10-23T12:50:31.149Z,100882.94
2023-10-23T12:53:19.123Z,100871.63
2023-10-23T12:56:07.317Z,100866.25
2023-10-23T12:58:56.361Z,100856.78
2023-10-23T13:01:44.357Z,100855.09
2023-10-23T13:04:33.516Z,100850.88
2023-10-23T13:07:24.005Z,100851.72
2023-10-23T13:10:13.229Z,100836.88
2023-10-23T13:13:01.333Z,100853.41
2023-10-23T13:15:49.414Z,100847.19
2023-10-23T13:18:52.488Z,100842.03
2023-10-23T13:21:41.999Z,100829.50
2023-10-23T13:24:30.031Z,100828.56
2023-10-23T13:27:18.659Z,100833.19
2023-10-23T13:30:07.251Z,100821.06
2023-10-23T13:32:55.772Z,100809.38
2023-10-23T13:35:43.821Z,100808.84
2023-10-23T13:38:33.792Z,100795.97
2023-10-23T13:41:22.476Z,100798.63
2023-10-23T13:44:11.387Z,100801.25
2023-10-23T13:47:00.359Z,100802.00
2023-10-23T13:49:50.333Z,100801.25
2023-10-23T13:52:39.711Z,100810.63
2023-10-23T13:55:27.727Z,100802.00
2023-10-23T13:58:16.364Z,100792.31
2023-10-23T14:01:05.285Z,100782.50
2023-10-23T14:03:54.762Z,100781.56
2023-10-23T14:06:43.437Z,100772.50
2023-10-23T14:09:43.306Z,100768.50
2023-10-23T14:12:35.470Z,100758.41
2023-10-23T14:15:23.605Z,100749.31
2023-10-23T14:18:11.516Z,100747.09
2023-10-23T14:20:59.519Z,100746.03
2023-10-23T14:23:47.390Z,100736.25
2023-10-23T14:26:35.242Z,100730.22
2023-10-23T14:29:23.136Z,100730.44
2023-10-23T14:32:11.104Z,100724.66
2023-10-23T14:35:00.262Z,100726.88
2023-10-23T14:37:54.438Z,100719.31
2023-10-23T14:40:42.361Z,100710.97
2023-10-23T14:43:32.714Z,100704.25
2023-10-23T14:46:22.694Z,100700.34
2023-10-23T14:49:11.291Z,100689.31
2023-10-23T14:51:59.215Z,100693.91
2023-10-23T14:54:47.693Z,100678.44
2023-10-23T14:57:35.619Z,100669.19
2023-10-23T15:00:23.512Z,100666.00
2023-10-23T15:03:11.417Z,100654.88
2023-10-23T15:05:59.430Z,100646.25
2023-10-23T15:08:48.348Z,100647.50
2023-10-23T15:11:36.269Z,100639.06
2023-10-23T15:14:24.478Z,100636.53
2023-10-23T15:17:12.426Z,100631.47
2023-10-23T15:20:00.388Z,100625.47
2023-10-23T15:22:49.311Z,100622.41
2023-10-23T15:25:37.287Z,100620.75
2023-10-23T15:28:26.717Z,100618.13
2023-10-23T15:31:16.066Z,100611.25
2023-10-23T15:34:04.761Z,100612.41
2023-10-23T15:36:52.707Z,100609.06
2023-10-23T15:39:44.035Z,100604.09
2023-10-23T15:42:32.369Z,100601.56
2023-10-23T15:45:20.263Z,100600.97
2023-10-23T15:48:08.915Z,100596.63
2023-10-23T15:50:58.253Z,100611.59
2023-10-23T15:53:46.151Z,100601.28
2023-10-23T15:56:35.654Z,100604.00
2023-10-23T15:59:23.660Z,100602.31
2023-10-23T16:02:11.971Z,100602.41
2023-10-23T16:04:59.903Z,100604.09
2023-10-23T16:07:47.819Z,100608.72
2023-10-23T16:10:35.690Z,100606.94
2023-10-23T16:13:23.993Z,100594.00
2023-10-23T16:16:16.475Z,100608.09
2023-10-23T16:19:06.051Z,100617.00
2023-10-23T16:21:54.005Z,100609.22
2023-10-23T16:24:42.903Z,100604.06
2023-10-23T16:27:32.916Z,100607.66
2023-10-23T16:30:24.663Z,100606.78
2023-10-23T16:33:12.554Z,100606.91
2023-10-23T16:36:00.383Z,100601.75
2023-10-23T16:38:48.301Z,100598.47
2023-10-23T16:41:36.118Z,100593.63
2023-10-23T16:44:24.745Z,100585.31
2023-10-23T16:47:14.294Z,100581.41
2023-10-23T16:50:02.672Z,100578.56
2023-10-23T16:52:52.301Z,100565.91
2023-10-23T16:55:41.393Z,100561.91
2023-10-23T16:58:31.825Z,100555.25
2023-10-23T17:01:22.140Z,100545.25
2023-10-23T17:04:10.603Z,100542.09
2023-10-23T17:06:58.680Z,100533.78
2023-10-23T17:09:48.582Z,100533.09
2023-10-23T17:12:36.997Z,100525.53
2023-10-23T17:15:25.885Z,100524.94
2023-10-23T17:18:13.785Z,100520.19
2023-10-23T17:21:03.062Z,100517.75
2023-10-23T17:23:51.903Z,100507.56
2023-10-23T17:26:43.229Z,100494.53
2023-10-23T17:29:34.503Z,100494.84
2023-10-23T17:32:22.515Z,100491.66
2023-10-23T17:35:12.471Z,100486.63
2023-10-23T17:38:01.751Z,100480.72
2023-10-23T17:40:50.032Z,100481.66
2023-10-23T17:43:39.281Z,100478.31
2023-10-23T17:46:27.301Z,100474.09
2023-10-23T17:49:19.908Z,100474.19
2023-10-23T17:52:10.328Z,100478.50
2023-10-23T17:54:58.375Z,100478.59
2023-10-23T17:57:46.422Z,100479.53
2023-10-23T18:00:34.525Z,100479.53
2023-10-23T18:03:23.878Z,100484.66
2023-10-23T18:06:11.826Z,100484.66
2023-10-23T18:09:02.070Z,100485.50
2023-10-23T18:11:50.749Z,100466.41
2023-10-23T18:14:38.761Z,100469.03
2023-10-23T18:17:27.826Z,100463.78
2023-10-23T18:20:16.161Z,100457.78
2023-10-23T18:23:04.336Z,100452.66
2023-10-23T18:25:52.563Z,100451.78
2023-10-23T18:28:41.958Z,100440.56
2023-10-23T18:31:29.926Z,100449.16
2023-10-23T18:34:17.982Z,100443.09
2023-10-23T18:37:05.949Z,100443.19
2023-10-23T18:39:54.193Z,100441.47
2023-10-23T18:42:49.717Z,100447.69
2023-10-23T18:45:42.457Z,100436.34
2023-10-23T18:48:30.412Z,100438.13
2023-10-23T18:51:19.070Z,100440.75
2023-10-23T18:54:07.330Z,100428.75
2023-10-23T18:56:56.647Z,100427.09
2023-10-23T18:59:46.990Z,100429.63
2023-10-23T19:02:36.475Z,100413.22
2023-10-23T19:05:24.467Z,100410.59
2023-10-23T19:08:12.690Z,100406.31
2023-10-23T19:11:00.755Z,100410.78
2023-10-23T19:13:48.696Z,100407.25
2023-10-23T19:16:36.638Z,100403.78
2023-10-23T19:19:24.976Z,100396.84
2023-10-23T19:22:13.472Z,100404.72
2023-10-23T19:25:01.545Z,100401.25
2023-10-23T19:27:49.850Z,100390.78
2023-10-23T19:30:37.767Z,100388.03
2023-10-23T19:33:26.088Z,100387.28
2023-10-23T19:36:15.243Z,100374.38
2023-10-23T19:39:03.800Z,100362.94
2023-10-23T19:41:57.718Z,100352.66
2023-10-23T19:44:46.142Z,100353.38
2023-10-23T19:47:40.646Z,100346.56
2023-10-23T19:50:28.857Z,100336.91
2023-10-23T19:53:18.485Z,100340.47
2023-10-23T19:56:06.888Z,100344.78
2023-10-23T19:58:54.829Z,100340.56
2023-10-23T20:01:42.808Z,100324.94
2023-10-23T20:04:32.485Z,100327.47
2023-10-23T20:07:21.390Z,100323.16
2023-10-23T20:10:12.001Z,100318.75
2023-10-23T20:13:00.238Z,100312.03
2023-10-23T20:15:48.194Z,100318.84
2023-10-23T20:18:36.259Z,100310.78
2023-10-23T20:21:24.190Z,100302.28
2023-10-23T20:24:12.105Z,100295.47
2023-10-23T20:27:00.049Z,100290.31
2023-10-23T20:29:48.288Z,100282.53
2023-10-23T20:32:36.404Z,100280.03
2023-10-23T20:35:27.077Z,100268.81
2023-10-23T20:38:14.999Z,100265.31
2023-10-23T20:41:04.987Z,100274.97
2023-10-23T20:43:52.880Z,100256.81
2023-10-23T20:46:42.243Z,100254.00
2023-10-23T20:49:30.236Z,100258.63
2023-10-23T20:52:18.140Z,100249.16
2023-10-23T20:55:06.583Z,100246.84
2023-10-23T20:57:55.263Z,100238.25
2023-10-23T21:00:43.136Z,100227.97
2023-10-23T21:03:31.090Z,100219.22
2023-10-23T21:06:20.472Z,100212.53
2023-10-23T21:09:09.463Z,100213.47
2023-10-23T21:11:57.326Z,100205.78
2023-10-23T21:14:49.512Z,100207.50
2023-10-23T21:17:37.950Z,100189.25
2023-10-23T21:20:26.338Z,100182.31
2023-10-23T21:23:14.219Z,100183.25
2023-10-23T21:26:05.001Z,100173.81
2023-10-23T21:28:56.234Z,100181.78
2023-10-23T21:31:44.151Z,100177.47
2023-10-23T21:34:32.245Z,100159.84
2023-10-23T21:37:20.273Z,100155.56
2023-10-23T21:40:09.134Z,100157.22
2023-10-23T21:42:56.965Z,100152.09
2023-10-23T21:45:44.793Z,100145.09
2023-10-23T21:48:32.648Z,100138.25
2023-10-23T21:51:20.703Z,100141.63
2023-10-23T21:54:09.290Z,100126.94
2023-10-23T21:57:21.447Z,100121.81
2023-10-23T22:00:11.459Z,100113.00
2023-10-23T22:03:03.755Z,100117.50
2023-10-23T22:05:51.990Z,100108.59
2023-10-23T22:08:40.801Z,100112.16
2023-10-23T22:11:57.905Z,100100.66
2023-10-23T22:14:46.798Z,100101.47
2023-10-23T22:17:34.725Z,100098.03
2023-10-23T22:20:23.011Z,100090.28
2023-10-23T22:23:10.983Z,100097.16
2023-10-23T22:26:00.489Z,100102.41
2023-10-23T22:28:48.529Z,100105.03
2023-10-23T22:31:36.608Z,100098.97
2023-10-23T22:34:24.562Z,100101.56
2023-10-23T22:37:59.668Z,100098.03
2023-10-23T22:40:20.391Z,100090.91
2023-10-23T22:43:08.359Z,100086.38
2023-10-23T22:46:03.174Z,100083.44
2023-10-23T22:48:51.920Z,100068.78
2023-10-23T22:51:40.047Z,100059.97
2023-10-23T22:54:28.448Z,100060.84
2023-10-23T22:57:20.835Z,100050.44
2023-10-23T23:00:12.596Z,100056.31
2023-10-23T23:03:00.732Z,100051.38
2023-10-23T23:05:51.936Z,100047.94
2023-10-23T23:08:43.619Z,100039.97
2023-10-23T23:11:32.740Z,100045.09
2023-10-23T23:14:20.894Z,100045.22
2023-10-23T23:17:12.919Z,100045.94
2023-10-23T23:20:08.352Z,100048.75
2023-10-23T23:22:56.176Z,100052.97
2023-10-23T23:25:44.066Z,100047.63
2023-10-23T23:28:32.298Z,100047.53
2023-10-23T23:31:20.649Z,100046.56
2023-10-23T23:34:08.712Z,100049.94
2023-10-23T23:36:56.750Z,100045.53
2023-10-23T23:39:44.587Z,100049.84
2023-10-23T23:42:32.454Z,100042.78
2023-10-23T23:45:20.367Z,100059.34
2023-10-23T23:48:08.359Z,100048.88
2023-10-23T23:50:56.310Z,100056.72
2023-10-23T23:53:44.260Z,100056.63
2023-10-23T23:56:33.315Z,100054.97
2023-10-23T23:59:21.336Z,100047.84
